sensor_id;sensor_type;location;lat;lon;timestamp;P1;durP1;ratioP1;P2;durP2;ratioP2
20906;SDS011;10613;50.966;5.814;2023-10-09T00:01:25;6.25;;;6.25;;
20906;SDS011;10613;50.966;5.814;2023-10-09T00:05:33;8.50;;;8.25;;
20906;SDS011;10613;50.966;5.814;2023-10-09T00:09:59;8.25;;;7.00;;
20906;SDS011;10613;50.966;5.814;2023-10-09T00:14:06;9.00;;;9.00;;
20906;SDS011;10613;50.966;5.814;2023-10-09T00:18:13;6.25;;;6.25;;
20906;SDS011;10613;50.966;5.814;2023-10-09T00:22:20;10.00;;;7.50;;
20906;SDS011;10613;50.966;5.814;2023-10-09T00:26:33;6.25;;;6.25;;
20906;SDS011;10613;50.966;5.814;2023-10-09T00:30:50;7.00;;;6.00;;
20906;SDS011;10613;50.966;5.814;2023-10-09T00:34:59;9.25;;;7.00;;
20906;SDS011;10613;50.966;5.814;2023-10-09T00:39:26;5.75;;;5.75;;
20906;SDS011;10613;50.966;5.814;2023-10-09T00:43:45;9.25;;;6.75;;
20906;SDS011;10613;50.966;5.814;2023-10-09T00:47:52;9.00;;;9.00;;
20906;SDS011;10613;50.966;5.814;2023-10-09T00:52:09;9.00;;;8.00;;
20906;SDS011;10613;50.966;5.814;2023-10-09T00:56:25;6.50;;;5.00;;
20906;SDS011;10613;50.966;5.814;2023-10-09T01:00:32;8.50;;;6.50;;
20906;SDS011;10613;50.966;5.814;2023-10-09T01:04:39;10.00;;;7.00;;
20906;SDS011;10613;50.966;5.814;2023-10-09T01:08:50;9.00;;;6.75;;
20906;SDS011;10613;50.966;5.814;2023-10-09T01:13:14;9.00;;;6.00;;
20906;SDS011;10613;50.966;5.814;2023-10-09T01:17:21;9.25;;;8.75;;
20906;SDS011;10613;50.966;5.814;2023-10-09T01:21:42;7.00;;;7.00;;
20906;SDS011;10613;50.966;5.814;2023-10-09T01:25:49;10.25;;;9.75;;
20906;SDS011;10613;50.966;5.814;2023-10-09T01:29:56;9.75;;;9.75;;
20906;SDS011;10613;50.966;5.814;2023-10-09T01:34:06;10.00;;;10.00;;
20906;SDS011;10613;50.966;5.814;2023-10-09T01:38:16;9.50;;;9.50;;
20906;SDS011;10613;50.966;5.814;2023-10-09T01:42:23;9.75;;;9.50;;
20906;SDS011;10613;50.966;5.814;2023-10-09T01:46:36;8.50;;;7.00;;
20906;SDS011;10613;50.966;5.814;2023-10-09T01:50:43;9.25;;;9.25;;
20906;SDS011;10613;50.966;5.814;2023-10-09T01:54:51;11.00;;;11.00;;
20906;SDS011;10613;50.966;5.814;2023-10-09T01:58:58;10.75;;;10.75;;
20906;SDS011;10613;50.966;5.814;2023-10-09T02:03:12;18.25;;;13.50;;
20906;SDS011;10613;50.966;5.814;2023-10-09T02:07:30;9.75;;;9.00;;
20906;SDS011;10613;50.966;5.814;2023-10-09T02:11:47;11.50;;;10.25;;
20906;SDS011;10613;50.966;5.814;2023-10-09T02:15:55;6.00;;;6.00;;
20906;SDS011;10613;50.966;5.814;2023-10-09T02:20:21;12.50;;;9.50;;
20906;SDS011;10613;50.966;5.814;2023-10-09T02:24:35;9.75;;;9.75;;
20906;SDS011;10613;50.966;5.814;2023-10-09T02:29:01;9.00;;;9.00;;
20906;SDS011;10613;50.966;5.814;2023-10-09T02:33:20;10.00;;;8.00;;
20906;SDS011;10613;50.966;5.814;2023-10-09T02:37:37;8.50;;;8.50;;
20906;SDS011;10613;50.966;5.814;2023-10-09T02:41:44;10.25;;;10.25;;
20906;SDS011;10613;50.966;5.814;2023-10-09T02:45:56;9.50;;;9.00;;
20906;SDS011;10613;50.966;5.814;2023-10-09T02:50:03;9.75;;;9.75;;
20906;SDS011;10613;50.966;5.814;2023-10-09T02:54:26;11.75;;;11.75;;
20906;SDS011;10613;50.966;5.814;2023-10-09T02:58:42;13.00;;;11.00;;
20906;SDS011;10613;50.966;5.814;2023-10-09T03:02:49;7.25;;;7.25;;
20906;SDS011;10613;50.966;5.814;2023-10-09T03:06:57;8.50;;;8.50;;
20906;SDS011;10613;50.966;5.814;2023-10-09T03:11:04;6.50;;;6.00;;
20906;SDS011;10613;50.966;5.814;2023-10-09T03:15:12;10.75;;;7.50;;
20906;SDS011;10613;50.966;5.814;2023-10-09T03:19:19;9.25;;;9.25;;
20906;SDS011;10613;50.966;5.814;2023-10-09T03:23:26;9.75;;;8.50;;
20906;SDS011;10613;50.966;5.814;2023-10-09T03:27:33;10.50;;;10.50;;
20906;SDS011;10613;50.966;5.814;2023-10-09T03:31:41;11.75;;;10.75;;
20906;SDS011;10613;50.966;5.814;2023-10-09T03:35:49;10.00;;;10.00;;
20906;SDS011;10613;50.966;5.814;2023-10-09T03:39:56;10.00;;;10.00;;
20906;SDS011;10613;50.966;5.814;2023-10-09T03:44:03;10.25;;;10.00;;
20906;SDS011;10613;50.966;5.814;2023-10-09T03:48:10;9.25;;;9.25;;
20906;SDS011;10613;50.966;5.814;2023-10-09T03:52:28;13.25;;;13.00;;
20906;SDS011;10613;50.966;5.814;2023-10-09T03:56:37;8.75;;;8.75;;
20906;SDS011;10613;50.966;5.814;2023-10-09T04:00:44;13.25;;;9.25;;
20906;SDS011;10613;50.966;5.814;2023-10-09T04:04:56;11.00;;;10.25;;
20906;SDS011;10613;50.966;5.814;2023-10-09T04:09:07;12.25;;;7.50;;
20906;SDS011;10613;50.966;5.814;2023-10-09T04:13:34;10.00;;;9.50;;
20906;SDS011;10613;50.966;5.814;2023-10-09T04:17:41;10.75;;;9.50;;
20906;SDS011;10613;50.966;5.814;2023-10-09T04:21:49;14.00;;;11.25;;
20906;SDS011;10613;50.966;5.814;2023-10-09T04:25:56;12.50;;;10.25;;
20906;SDS011;10613;50.966;5.814;2023-10-09T04:30:06;16.25;;;13.75;;
20906;SDS011;10613;50.966;5.814;2023-10-09T04:34:24;10.00;;;10.00;;
20906;SDS011;10613;50.966;5.814;2023-10-09T04:38:34;11.00;;;10.00;;
20906;SDS011;10613;50.966;5.814;2023-10-09T04:42:41;9.00;;;8.50;;
20906;SDS011;10613;50.966;5.814;2023-10-09T04:47:04;8.00;;;8.00;;
20906;SDS011;10613;50.966;5.814;2023-10-09T04:51:17;9.50;;;9.50;;
20906;SDS011;10613;50.966;5.814;2023-10-09T04:55:27;9.25;;;9.25;;
20906;SDS011;10613;50.966;5.814;2023-10-09T04:59:45;7.50;;;7.50;;
20906;SDS011;10613;50.966;5.814;2023-10-09T05:03:55;7.50;;;6.50;;
20906;SDS011;10613;50.966;5.814;2023-10-09T05:08:05;7.50;;;7.50;;
20906;SDS011;10613;50.966;5.814;2023-10-09T05:12:27;10.00;;;9.25;;
20906;SDS011;10613;50.966;5.814;2023-10-09T05:16:35;8.00;;;6.25;;
20906;SDS011;10613;50.966;5.814;2023-10-09T05:20:44;12.50;;;12.50;;
20906;SDS011;10613;50.966;5.814;2023-10-09T05:25:12;11.00;;;11.00;;
20906;SDS011;10613;50.966;5.814;2023-10-09T05:29:24;11.00;;;11.00;;
20906;SDS011;10613;50.966;5.814;2023-10-09T05:33:41;10.00;;;10.00;;
20906;SDS011;10613;50.966;5.814;2023-10-09T05:37:51;12.00;;;10.75;;
20906;SDS011;10613;50.966;5.814;2023-10-09T05:42:07;12.25;;;10.75;;
20906;SDS011;10613;50.966;5.814;2023-10-09T05:46:24;8.00;;;7.00;;
20906;SDS011;10613;50.966;5.814;2023-10-09T05:50:42;13.00;;;13.00;;
20906;SDS011;10613;50.966;5.814;2023-10-09T05:55:07;15.50;;;10.25;;
20906;SDS011;10613;50.966;5.814;2023-10-09T05:59:34;10.75;;;10.25;;
20906;SDS011;10613;50.966;5.814;2023-10-09T06:04:00;13.25;;;12.50;;
20906;SDS011;10613;50.966;5.814;2023-10-09T06:08:25;14.50;;;12.00;;
20906;SDS011;10613;50.966;5.814;2023-10-09T06:12:48;10.50;;;10.50;;
20906;SDS011;10613;50.966;5.814;2023-10-09T06:17:09;14.50;;;13.00;;
20906;SDS011;10613;50.966;5.814;2023-10-09T06:21:34;12.50;;;11.00;;
20906;SDS011;10613;50.966;5.814;2023-10-09T06:25:47;10.00;;;10.00;;
20906;SDS011;10613;50.966;5.814;2023-10-09T06:30:09;11.25;;;10.25;;
20906;SDS011;10613;50.966;5.814;2023-10-09T06:34:19;11.25;;;10.00;;
20906;SDS011;10613;50.966;5.814;2023-10-09T06:38:28;13.25;;;11.50;;
20906;SDS011;10613;50.966;5.814;2023-10-09T06:42:55;14.00;;;12.75;;
20906;SDS011;10613;50.966;5.814;2023-10-09T06:47:02;14.25;;;14.25;;
20906;SDS011;10613;50.966;5.814;2023-10-09T06:51:21;13.50;;;12.00;;
20906;SDS011;10613;50.966;5.814;2023-10-09T06:55:38;14.00;;;13.00;;
20906;SDS011;10613;50.966;5.814;2023-10-09T06:59:57;10.00;;;10.00;;
20906;SDS011;10613;50.966;5.814;2023-10-09T07:04:30;8.00;;;8.00;;
20906;SDS011;10613;50.966;5.814;2023-10-09T07:08:37;10.50;;;9.75;;
20906;SDS011;10613;50.966;5.814;2023-10-09T07:12:44;11.50;;;10.50;;
20906;SDS011;10613;50.966;5.814;2023-10-09T07:16:51;9.75;;;9.75;;
20906;SDS011;10613;50.966;5.814;2023-10-09T07:21:05;9.25;;;9.25;;
20906;SDS011;10613;50.966;5.814;2023-10-09T07:25:21;14.25;;;10.75;;
20906;SDS011;10613;50.966;5.814;2023-10-09T07:29:46;11.50;;;10.50;;
20906;SDS011;10613;50.966;5.814;2023-10-09T07:33:56;13.75;;;10.50;;
20906;SDS011;10613;50.966;5.814;2023-10-09T07:38:03;11.50;;;11.50;;
20906;SDS011;10613;50.966;5.814;2023-10-09T07:42:11;10.25;;;9.25;;
20906;SDS011;10613;50.966;5.814;2023-10-09T07:46:39;11.00;;;11.00;;
20906;SDS011;10613;50.966;5.814;2023-10-09T07:50:58;12.25;;;10.50;;
20906;SDS011;10613;50.966;5.814;2023-10-09T07:55:05;13.50;;;10.00;;
20906;SDS011;10613;50.966;5.814;2023-10-09T07:59:29;12.00;;;11.00;;
20906;SDS011;10613;50.966;5.814;2023-10-09T08:03:37;6.75;;;6.75;;
20906;SDS011;10613;50.966;5.814;2023-10-09T08:07:45;9.50;;;9.50;;
20906;SDS011;10613;50.966;5.814;2023-10-09T08:12:02;13.75;;;13.75;;
20906;SDS011;10613;50.966;5.814;2023-10-09T08:16:40;12.75;;;12.50;;
20906;SDS011;10613;50.966;5.814;2023-10-09T08:20:54;9.75;;;9.75;;
20906;SDS011;10613;50.966;5.814;2023-10-09T08:25:04;11.00;;;10.25;;
20906;SDS011;10613;50.966;5.814;2023-10-09T08:29:11;10.50;;;10.00;;
20906;SDS011;10613;50.966;5.814;2023-10-09T08:33:26;10.75;;;9.25;;
20906;SDS011;10613;50.966;5.814;2023-10-09T08:37:33;12.00;;;10.00;;
20906;SDS011;10613;50.966;5.814;2023-10-09T08:41:41;11.75;;;9.00;;
20906;SDS011;10613;50.966;5.814;2023-10-09T08:45:49;9.75;;;9.75;;
20906;SDS011;10613;50.966;5.814;2023-10-09T08:49:59;10.50;;;9.75;;
20906;SDS011;10613;50.966;5.814;2023-10-09T08:54:06;10.75;;;10.75;;
20906;SDS011;10613;50.966;5.814;2023-10-09T08:58:17;14.25;;;13.00;;
20906;SDS011;10613;50.966;5.814;2023-10-09T09:02:31;10.25;;;10.00;;
20906;SDS011;10613;50.966;5.814;2023-10-09T09:06:38;9.00;;;8.50;;
20906;SDS011;10613;50.966;5.814;2023-10-09T09:10:50;6.75;;;6.75;;
20906;SDS011;10613;50.966;5.814;2023-10-09T09:14:57;10.50;;;9.00;;
20906;SDS011;10613;50.966;5.814;2023-10-09T09:19:05;11.00;;;11.00;;
20906;SDS011;10613;50.966;5.814;2023-10-09T09:23:14;13.75;;;11.00;;
20906;SDS011;10613;50.966;5.814;2023-10-09T09:27:21;11.50;;;9.75;;
20906;SDS011;10613;50.966;5.814;2023-10-09T09:31:37;10.75;;;10.50;;
20906;SDS011;10613;50.966;5.814;2023-10-09T09:36:06;11.00;;;10.50;;
20906;SDS011;10613;50.966;5.814;2023-10-09T09:40:11;14.25;;;11.25;;
20906;SDS011;10613;50.966;5.814;2023-10-09T09:44:36;15.00;;;15.00;;
20906;SDS011;10613;50.966;5.814;2023-10-09T09:48:50;18.00;;;16.25;;
20906;SDS011;10613;50.966;5.814;2023-10-09T09:53:00;15.50;;;13.00;;
20906;SDS011;10613;50.966;5.814;2023-10-09T09:57:07;10.00;;;10.00;;
20906;SDS011;10613;50.966;5.814;2023-10-09T10:01:19;10.25;;;10.00;;
20906;SDS011;10613;50.966;5.814;2023-10-09T10:05:31;15.25;;;11.50;;
20906;SDS011;10613;50.966;5.814;2023-10-09T10:09:40;15.00;;;13.50;;
20906;SDS011;10613;50.966;5.814;2023-10-09T10:18:17;15.00;;;11.50;;
20906;SDS011;10613;50.966;5.814;2023-10-09T10:22:33;15.50;;;14.00;;
20906;SDS011;10613;50.966;5.814;2023-10-09T10:26:44;10.00;;;9.25;;
20906;SDS011;10613;50.966;5.814;2023-10-09T10:30:51;11.25;;;11.00;;
20906;SDS011;10613;50.966;5.814;2023-10-09T10:34:59;12.50;;;12.50;;
20906;SDS011;10613;50.966;5.814;2023-10-09T10:39:12;13.75;;;11.25;;
20906;SDS011;10613;50.966;5.814;2023-10-09T10:43:25;11.00;;;10.75;;
20906;SDS011;10613;50.966;5.814;2023-10-09T10:48:02;12.50;;;10.50;;
20906;SDS011;10613;50.966;5.814;2023-10-09T10:52:21;11.75;;;11.50;;
20906;SDS011;10613;50.966;5.814;2023-10-09T10:56:28;13.75;;;12.00;;
20906;SDS011;10613;50.966;5.814;2023-10-09T11:00:43;10.50;;;10.25;;
20906;SDS011;10613;50.966;5.814;2023-10-09T11:05:04;11.25;;;11.25;;
20906;SDS011;10613;50.966;5.814;2023-10-09T11:09:29;11.75;;;10.00;;
20906;SDS011;10613;50.966;5.814;2023-10-09T11:13:48;10.50;;;9.50;;
20906;SDS011;10613;50.966;5.814;2023-10-09T11:18:15;7.00;;;7.00;;
20906;SDS011;10613;50.966;5.814;2023-10-09T11:22:31;14.00;;;11.50;;
20906;SDS011;10613;50.966;5.814;2023-10-09T11:26:42;13.00;;;10.50;;
20906;SDS011;10613;50.966;5.814;2023-10-09T11:30:49;10.00;;;10.00;;
20906;SDS011;10613;50.966;5.814;2023-10-09T11:35:14;10.50;;;8.75;;
20906;SDS011;10613;50.966;5.814;2023-10-09T11:39:30;11.25;;;10.00;;
20906;SDS011;10613;50.966;5.814;2023-10-09T11:43:50;11.50;;;10.25;;
20906;SDS011;10613;50.966;5.814;2023-10-09T11:47:58;10.00;;;10.00;;
20906;SDS011;10613;50.966;5.814;2023-10-09T11:52:09;10.75;;;10.75;;
20906;SDS011;10613;50.966;5.814;2023-10-09T11:56:18;12.50;;;9.00;;
20906;SDS011;10613;50.966;5.814;2023-10-09T12:00:27;10.75;;;10.75;;
20906;SDS011;10613;50.966;5.814;2023-10-09T12:04:40;11.00;;;10.75;;
20906;SDS011;10613;50.966;5.814;2023-10-09T12:08:50;10.25;;;10.25;;
20906;SDS011;10613;50.966;5.814;2023-10-09T12:12:56;8.00;;;8.00;;
20906;SDS011;10613;50.966;5.814;2023-10-09T12:17:05;8.75;;;8.00;;
20906;SDS011;10613;50.966;5.814;2023-10-09T12:21:11;12.00;;;12.00;;
20906;SDS011;10613;50.966;5.814;2023-10-09T12:25:21;11.00;;;11.00;;
20906;SDS011;10613;50.966;5.814;2023-10-09T12:29:28;12.00;;;12.00;;
20906;SDS011;10613;50.966;5.814;2023-10-09T12:33:37;10.75;;;9.75;;
20906;SDS011;10613;50.966;5.814;2023-10-09T12:37:46;9.00;;;9.00;;
20906;SDS011;10613;50.966;5.814;2023-10-09T12:41:54;11.00;;;11.00;;
20906;SDS011;10613;50.966;5.814;2023-10-09T12:46:04;12.75;;;11.00;;
20906;SDS011;10613;50.966;5.814;2023-10-09T12:50:13;12.50;;;12.25;;
20906;SDS011;10613;50.966;5.814;2023-10-09T12:54:21;13.50;;;12.50;;
20906;SDS011;10613;50.966;5.814;2023-10-09T12:58:34;11.00;;;11.00;;
20906;SDS011;10613;50.966;5.814;2023-10-09T13:02:59;13.25;;;10.75;;
20906;SDS011;10613;50.966;5.814;2023-10-09T13:07:14;9.50;;;9.00;;
20906;SDS011;10613;50.966;5.814;2023-10-09T13:11:29;12.25;;;12.25;;
20906;SDS011;10613;50.966;5.814;2023-10-09T13:15:36;10.75;;;9.25;;
20906;SDS011;10613;50.966;5.814;2023-10-09T13:19:49;12.50;;;12.00;;
20906;SDS011;10613;50.966;5.814;2023-10-09T13:23:56;11.25;;;10.50;;
20906;SDS011;10613;50.966;5.814;2023-10-09T13:28:04;13.00;;;13.00;;
20906;SDS011;10613;50.966;5.814;2023-10-09T13:32:12;14.50;;;14.00;;
20906;SDS011;10613;50.966;5.814;2023-10-09T13:36:22;13.50;;;12.75;;
20906;SDS011;10613;50.966;5.814;2023-10-09T13:40:38;13.00;;;12.50;;
20906;SDS011;10613;50.966;5.814;2023-10-09T13:44:45;12.25;;;12.25;;
20906;SDS011;10613;50.966;5.814;2023-10-09T13:48:55;11.75;;;11.75;;
20906;SDS011;10613;50.966;5.814;2023-10-09T13:53:02;13.00;;;12.75;;
20906;SDS011;10613;50.966;5.814;2023-10-09T13:57:14;14.00;;;12.50;;
20906;SDS011;10613;50.966;5.814;2023-10-09T14:01:22;12.00;;;11.00;;
20906;SDS011;10613;50.966;5.814;2023-10-09T14:05:35;12.75;;;11.25;;
20906;SDS011;10613;50.966;5.814;2023-10-09T14:09:44;12.50;;;11.75;;
20906;SDS011;10613;50.966;5.814;2023-10-09T14:13:51;14.00;;;13.25;;
20906;SDS011;10613;50.966;5.814;2023-10-09T14:17:59;15.50;;;12.75;;
20906;SDS011;10613;50.966;5.814;2023-10-09T14:22:09;11.50;;;11.50;;
20906;SDS011;10613;50.966;5.814;2023-10-09T14:26:16;13.00;;;13.00;;
20906;SDS011;10613;50.966;5.814;2023-10-09T14:30:25;15.75;;;11.00;;
20906;SDS011;10613;50.966;5.814;2023-10-09T14:34:39;12.50;;;12.25;;
20906;SDS011;10613;50.966;5.814;2023-10-09T14:38:50;12.75;;;12.75;;
20906;SDS011;10613;50.966;5.814;2023-10-09T14:42:59;11.00;;;11.00;;
20906;SDS011;10613;50.966;5.814;2023-10-09T14:47:06;12.50;;;11.50;;
20906;SDS011;10613;50.966;5.814;2023-10-09T14:51:13;13.25;;;12.25;;
20906;SDS011;10613;50.966;5.814;2023-10-09T14:55:20;12.50;;;12.50;;
20906;SDS011;10613;50.966;5.814;2023-10-09T14:59:35;14.50;;;14.00;;
20906;SDS011;10613;50.966;5.814;2023-10-09T15:03:42;12.50;;;12.50;;
20906;SDS011;10613;50.966;5.814;2023-10-09T15:07:49;15.25;;;14.00;;
20906;SDS011;10613;50.966;5.814;2023-10-09T15:11:57;13.00;;;13.00;;
20906;SDS011;10613;50.966;5.814;2023-10-09T15:16:04;15.50;;;14.00;;
20906;SDS011;10613;50.966;5.814;2023-10-09T15:20:11;13.75;;;13.00;;
20906;SDS011;10613;50.966;5.814;2023-10-09T15:24:20;14.50;;;13.00;;
20906;SDS011;10613;50.966;5.814;2023-10-09T15:28:27;13.25;;;13.25;;
20906;SDS011;10613;50.966;5.814;2023-10-09T15:32:42;12.00;;;12.00;;
20906;SDS011;10613;50.966;5.814;2023-10-09T15:36:49;14.50;;;13.50;;
20906;SDS011;10613;50.966;5.814;2023-10-09T15:40:56;17.00;;;15.00;;
20906;SDS011;10613;50.966;5.814;2023-10-09T15:45:07;12.00;;;12.00;;
20906;SDS011;10613;50.966;5.814;2023-10-09T15:49:15;12.75;;;12.75;;
20906;SDS011;10613;50.966;5.814;2023-10-09T15:53:22;17.25;;;15.50;;
20906;SDS011;10613;50.966;5.814;2023-10-09T15:57:30;13.50;;;13.25;;
20906;SDS011;10613;50.966;5.814;2023-10-09T16:01:37;15.75;;;13.75;;
20906;SDS011;10613;50.966;5.814;2023-10-09T16:05:51;13.25;;;13.25;;
20906;SDS011;10613;50.966;5.814;2023-10-09T16:09:58;16.00;;;15.00;;
20906;SDS011;10613;50.966;5.814;2023-10-09T16:14:05;14.75;;;13.50;;
20906;SDS011;10613;50.966;5.814;2023-10-09T16:18:22;13.00;;;11.25;;
20906;SDS011;10613;50.966;5.814;2023-10-09T16:22:29;16.50;;;16.50;;
20906;SDS011;10613;50.966;5.814;2023-10-09T16:26:36;15.50;;;12.00;;
20906;SDS011;10613;50.966;5.814;2023-10-09T16:30:46;16.00;;;16.00;;
20906;SDS011;10613;50.966;5.814;2023-10-09T16:35:00;13.00;;;13.00;;
20906;SDS011;10613;50.966;5.814;2023-10-09T16:39:07;16.75;;;13.75;;
20906;SDS011;10613;50.966;5.814;2023-10-09T16:43:25;14.75;;;12.75;;
20906;SDS011;10613;50.966;5.814;2023-10-09T16:47:35;13.00;;;13.00;;
20906;SDS011;10613;50.966;5.814;2023-10-09T16:51:45;15.25;;;14.75;;
20906;SDS011;10613;50.966;5.814;2023-10-09T16:55:53;17.00;;;16.00;;
20906;SDS011;10613;50.966;5.814;2023-10-09T17:00:03;12.75;;;12.75;;
20906;SDS011;10613;50.966;5.814;2023-10-09T17:04:11;18.50;;;16.75;;
20906;SDS011;10613;50.966;5.814;2023-10-09T17:08:18;16.50;;;13.50;;
20906;SDS011;10613;50.966;5.814;2023-10-09T17:12:26;13.00;;;12.25;;
20906;SDS011;10613;50.966;5.814;2023-10-09T17:16:35;18.50;;;15.50;;
20906;SDS011;10613;50.966;5.814;2023-10-09T17:20:47;13.00;;;13.00;;
20906;SDS011;10613;50.966;5.814;2023-10-09T17:24:55;14.00;;;11.75;;
20906;SDS011;10613;50.966;5.814;2023-10-09T17:29:02;16.00;;;16.00;;
20906;SDS011;10613;50.966;5.814;2023-10-09T17:33:09;15.75;;;15.75;;
20906;SDS011;10613;50.966;5.814;2023-10-09T17:37:16;14.75;;;14.75;;
20906;SDS011;10613;50.966;5.814;2023-10-09T17:41:23;12.00;;;12.00;;
20906;SDS011;10613;50.966;5.814;2023-10-09T17:45:30;12.50;;;11.50;;
20906;SDS011;10613;50.966;5.814;2023-10-09T17:49:40;16.00;;;12.25;;
20906;SDS011;10613;50.966;5.814;2023-10-09T17:53:47;16.75;;;15.50;;
20906;SDS011;10613;50.966;5.814;2023-10-09T17:57:56;11.00;;;11.00;;
20906;SDS011;10613;50.966;5.814;2023-10-09T18:02:03;15.00;;;13.00;;
20906;SDS011;10613;50.966;5.814;2023-10-09T18:06:11;16.00;;;11.50;;
20906;SDS011;10613;50.966;5.814;2023-10-09T18:10:25;14.75;;;14.75;;
20906;SDS011;10613;50.966;5.814;2023-10-09T18:14:32;12.25;;;12.25;;
20906;SDS011;10613;50.966;5.814;2023-10-09T18:18:41;15.75;;;12.75;;
20906;SDS011;10613;50.966;5.814;2023-10-09T18:22:50;16.50;;;13.00;;
20906;SDS011;10613;50.966;5.814;2023-10-09T18:26:57;16.00;;;14.00;;
20906;SDS011;10613;50.966;5.814;2023-10-09T18:31:09;11.25;;;11.25;;
20906;SDS011;10613;50.966;5.814;2023-10-09T18:35:16;14.75;;;13.75;;
20906;SDS011;10613;50.966;5.814;2023-10-09T18:39:23;11.25;;;11.25;;
20906;SDS011;10613;50.966;5.814;2023-10-09T18:43:30;18.50;;;15.75;;
20906;SDS011;10613;50.966;5.814;2023-10-09T18:47:37;13.50;;;13.50;;
20906;SDS011;10613;50.966;5.814;2023-10-09T18:52:01;10.00;;;10.00;;
20906;SDS011;10613;50.966;5.814;2023-10-09T18:56:15;12.50;;;11.75;;
20906;SDS011;10613;50.966;5.814;2023-10-09T19:00:29;13.50;;;13.25;;
20906;SDS011;10613;50.966;5.814;2023-10-09T19:04:39;20.25;;;16.00;;
20906;SDS011;10613;50.966;5.814;2023-10-09T19:08:53;15.50;;;12.00;;
20906;SDS011;10613;50.966;5.814;2023-10-09T19:13:01;15.00;;;13.75;;
20906;SDS011;10613;50.966;5.814;2023-10-09T19:17:13;15.25;;;15.00;;
20906;SDS011;10613;50.966;5.814;2023-10-09T19:21:21;13.25;;;13.00;;
20906;SDS011;10613;50.966;5.814;2023-10-09T19:25:29;18.25;;;16.25;;
20906;SDS011;10613;50.966;5.814;2023-10-09T19:29:39;10.50;;;10.50;;
20906;SDS011;10613;50.966;5.814;2023-10-09T19:33:46;11.25;;;11.00;;
20906;SDS011;10613;50.966;5.814;2023-10-09T19:37:53;10.25;;;9.25;;
20906;SDS011;10613;50.966;5.814;2023-10-09T19:42:00;10.75;;;10.75;;
20906;SDS011;10613;50.966;5.814;2023-10-09T19:46:07;17.50;;;16.00;;
20906;SDS011;10613;50.966;5.814;2023-10-09T19:50:14;11.75;;;10.50;;
20906;SDS011;10613;50.966;5.814;2023-10-09T19:54:21;15.75;;;11.25;;
20906;SDS011;10613;50.966;5.814;2023-10-09T19:58:28;17.50;;;12.75;;
20906;SDS011;10613;50.966;5.814;2023-10-09T20:02:35;14.50;;;12.00;;
20906;SDS011;10613;50.966;5.814;2023-10-09T20:06:42;13.50;;;11.75;;
20906;SDS011;10613;50.966;5.814;2023-10-09T20:10:52;15.00;;;14.00;;
20906;SDS011;10613;50.966;5.814;2023-10-09T20:15:00;14.50;;;13.75;;
20906;SDS011;10613;50.966;5.814;2023-10-09T20:19:07;14.25;;;12.00;;
20906;SDS011;10613;50.966;5.814;2023-10-09T20:23:15;15.00;;;15.00;;
20906;SDS011;10613;50.966;5.814;2023-10-09T20:27:27;16.50;;;15.00;;
20906;SDS011;10613;50.966;5.814;2023-10-09T20:31:37;15.50;;;12.25;;
20906;SDS011;10613;50.966;5.814;2023-10-09T20:35:44;17.00;;;14.50;;
20906;SDS011;10613;50.966;5.814;2023-10-09T20:39:52;13.50;;;13.50;;
20906;SDS011;10613;50.966;5.814;2023-10-09T20:43:59;17.00;;;15.75;;
20906;SDS011;10613;50.966;5.814;2023-10-09T20:48:06;14.00;;;13.50;;
20906;SDS011;10613;50.966;5.814;2023-10-09T20:52:13;16.50;;;14.00;;
20906;SDS011;10613;50.966;5.814;2023-10-09T20:56:21;17.00;;;17.00;;
20906;SDS011;10613;50.966;5.814;2023-10-09T21:00:28;18.75;;;14.00;;
20906;SDS011;10613;50.966;5.814;2023-10-09T21:04:38;17.50;;;15.00;;
20906;SDS011;10613;50.966;5.814;2023-10-09T21:08:47;18.75;;;17.00;;
20906;SDS011;10613;50.966;5.814;2023-10-09T21:12:54;15.00;;;14.00;;
20906;SDS011;10613;50.966;5.814;2023-10-09T21:17:01;15.50;;;14.50;;
20906;SDS011;10613;50.966;5.814;2023-10-09T21:21:11;14.50;;;13.50;;
20906;SDS011;10613;50.966;5.814;2023-10-09T21:25:21;11.50;;;10.75;;
20906;SDS011;10613;50.966;5.814;2023-10-09T21:29:27;13.50;;;12.50;;
20906;SDS011;10613;50.966;5.814;2023-10-09T21:33:34;16.00;;;14.25;;
20906;SDS011;10613;50.966;5.814;2023-10-09T21:37:45;14.00;;;13.00;;
20906;SDS011;10613;50.966;5.814;2023-10-09T21:41:52;13.75;;;13.75;;
20906;SDS011;10613;50.966;5.814;2023-10-09T21:45:59;14.50;;;14.50;;
20906;SDS011;10613;50.966;5.814;2023-10-09T21:50:06;13.00;;;11.00;;
20906;SDS011;10613;50.966;5.814;2023-10-09T21:54:13;14.75;;;13.75;;
20906;SDS011;10613;50.966;5.814;2023-10-09T21:58:22;10.25;;;10.25;;
20906;SDS011;10613;50.966;5.814;2023-10-09T22:02:29;12.50;;;11.75;;
20906;SDS011;10613;50.966;5.814;2023-10-09T22:06:38;13.50;;;11.50;;
20906;SDS011;10613;50.966;5.814;2023-10-09T22:10:46;10.00;;;9.00;;
20906;SDS011;10613;50.966;5.814;2023-10-09T22:14:54;7.00;;;6.00;;
20906;SDS011;10613;50.966;5.814;2023-10-09T22:19:01;10.00;;;9.50;;
20906;SDS011;10613;50.966;5.814;2023-10-09T22:23:16;10.75;;;8.00;;
20906;SDS011;10613;50.966;5.814;2023-10-09T22:27:26;16.25;;;12.50;;
20906;SDS011;10613;50.966;5.814;2023-10-09T22:31:33;10.25;;;10.25;;
20906;SDS011;10613;50.966;5.814;2023-10-09T22:35:52;10.50;;;10.50;;
20906;SDS011;10613;50.966;5.814;2023-10-09T22:39:59;9.25;;;9.25;;
20906;SDS011;10613;50.966;5.814;2023-10-09T22:44:07;11.00;;;11.00;;
20906;SDS011;10613;50.966;5.814;2023-10-09T22:48:17;12.00;;;11.00;;
20906;SDS011;10613;50.966;5.814;2023-10-09T22:52:24;10.25;;;9.50;;
20906;SDS011;10613;50.966;5.814;2023-10-09T22:56:31;13.00;;;13.00;;
20906;SDS011;10613;50.966;5.814;2023-10-09T23:00:39;13.25;;;10.00;;
20906;SDS011;10613;50.966;5.814;2023-10-09T23:04:54;9.00;;;9.00;;
20906;SDS011;10613;50.966;5.814;2023-10-09T23:09:11;16.25;;;15.00;;
20906;SDS011;10613;50.966;5.814;2023-10-09T23:13:21;10.50;;;9.75;;
20906;SDS011;10613;50.966;5.814;2023-10-09T23:17:40;10.25;;;10.25;;
20906;SDS011;10613;50.966;5.814;2023-10-09T23:21:54;12.25;;;11.75;;
20906;SDS011;10613;50.966;5.814;2023-10-09T23:26:19;9.50;;;9.50;;
20906;SDS011;10613;50.966;5.814;2023-10-09T23:30:29;12.00;;;10.00;;
20906;SDS011;10613;50.966;5.814;2023-10-09T23:34:36;10.00;;;10.00;;
20906;SDS011;10613;50.966;5.814;2023-10-09T23:38:50;11.25;;;10.25;;
20906;SDS011;10613;50.966;5.814;2023-10-09T23:43:15;13.50;;;12.25;;
20906;SDS011;10613;50.966;5.814;2023-10-09T23:47:37;11.75;;;11.75;;
20906;SDS011;10613;50.966;5.814;2023-10-09T23:51:47;17.50;;;15.75;;
20906;SDS011;10613;50.966;5.814;2023-10-09T23:56:02;10.00;;;10.00;;
